Time;durP1;ratioP1;P1;durP2;ratioP2;P2;SDS_P1;SDS_P2;PMS_P1;PMS_P2;Temp;Humidity;BMP_temperature;BMP_pressure;BME280_temperature;BME280_humidity;BME280_pressure;Samples;Min_cycle;Max_cycle;Signal;HPM_P1;HPM_P2
2022/03/19 00:00:43;;;;;;;;;;;10.70;52.10;;;;;;5058394;28;19909;-91
2022/03/19 00:03:09;;;;;;;;;;;10.70;52.20;;;;;;5058977;28;20021;-91
2022/03/19 00:05:34;;;;;;;;;;;10.60;52.10;;;;;;5077729;28;20002;-92
2022/03/19 00:08:01;;;;;;;;;;;10.70;52.30;;;;;;5060641;28;19999;-89
2022/03/19 00:10:27;;;;;;;;;;;10.60;52.30;;;;;;5078294;28;19909;-92
2022/03/19 00:12:54;;;;;;;;;;;10.60;52.20;;;;;;5060925;28;20409;-92
2022/03/19 00:15:26;;;;;;;;;;;10.60;52.30;;;;;;5065144;28;19901;-92
2022/03/19 00:17:57;;;;;;;;;;;10.60;52.50;;;;;;5079526;28;20094;-89
2022/03/19 00:20:23;;;;;;;;;;;10.50;52.60;;;;;;5064835;28;19918;-89
2022/03/19 00:22:52;;;;;;;;;;;10.50;52.70;;;;;;5066432;28;19920;-92
2022/03/19 00:25:17;;;;;;;;;;;10.50;52.80;;;;;;5082510;28;19936;-91
2022/03/19 00:27:43;;;;;;;;;;;10.50;53.00;;;;;;5061006;28;19907;-91
2022/03/19 00:30:09;;;;;;;;;;;10.40;53.10;;;;;;5086197;28;19909;-91
2022/03/19 00:32:35;;;;;;;;;;;10.40;53.20;;;;;;5063559;28;19917;-92
2022/03/19 00:35:01;;;;;;;;;;;10.40;53.30;;;;;;5081425;28;19940;-91
2022/03/19 00:37:27;;;;;;;;;;;10.40;53.20;;;;;;5058827;28;19916;-90
2022/03/19 00:39:52;;;;;;;;;;;10.30;53.10;;;;;;5059581;28;19909;-90
2022/03/19 00:42:18;;;;;;;;;;;10.30;53.00;;;;;;5060763;28;19909;-90
2022/03/19 00:44:44;;;;;;;;;;;10.30;53.20;;;;;;5061613;28;19909;-91
2022/03/19 00:47:09;;;;;;;;;;;10.30;53.40;;;;;;5062087;28;19912;-91
2022/03/19 00:49:35;;;;;;;;;;;10.20;53.60;;;;;;5058240;28;19919;-90
2022/03/19 00:52:01;;;;;;;;;;;10.20;53.80;;;;;;5080494;28;19972;-89
2022/03/19 00:54:26;;;;;;;;;;;10.20;54.00;;;;;;5066316;28;19939;-90
2022/03/19 00:56:52;;;;;;;;;;;10.20;54.00;;;;;;5062418;28;19908;-91
2022/03/19 00:59:19;;;;;;;;;;;10.20;54.00;;;;;;5061222;28;19956;-90
2022/03/19 01:01:44;;;;;;;;;;;10.20;54.10;;;;;;5064070;28;19954;-89
2022/03/19 01:04:10;;;;;;;;;;;10.20;54.10;;;;;;5064784;28;20387;-89
2022/03/19 01:06:35;;;;;;;;;;;10.30;54.10;;;;;;5062100;28;19909;-91
2022/03/19 01:09:01;;;;;;;;;;;10.20;54.30;;;;;;5065425;28;19922;-89
2022/03/19 01:11:27;;;;;;;;;;;10.20;54.40;;;;;;5081589;28;19983;-89
2022/03/19 01:13:54;;;;;;;;;;;10.20;54.30;;;;;;5067811;28;19977;-91
2022/03/19 01:16:19;;;;;;;;;;;10.20;54.30;;;;;;5101311;28;19909;-92
2022/03/19 01:18:49;;;;;;;;;;;10.20;54.30;;;;;;5087394;28;19924;-91
2022/03/19 01:21:15;;;;;;;;;;;10.20;54.40;;;;;;5083400;28;19975;-91
2022/03/19 01:23:40;;;;;;;;;;;10.20;54.60;;;;;;5080105;28;19901;-91
2022/03/19 01:26:06;;;;;;;;;;;10.20;54.60;;;;;;5084164;28;19979;-91
2022/03/19 01:28:31;;;;;;;;;;;10.20;54.60;;;;;;5081149;28;20329;-92
2022/03/19 01:30:57;;;;;;;;;;;10.30;54.60;;;;;;5078079;28;19958;-91
2022/03/19 01:33:22;;;;;;;;;;;10.30;54.50;;;;;;5080106;28;19920;-92
2022/03/19 01:35:48;;;;;;;;;;;10.30;54.40;;;;;;5097905;28;20020;-90
2022/03/19 01:38:14;;;;;;;;;;;10.30;54.40;;;;;;5097754;28;20251;-90
2022/03/19 01:40:39;;;;;;;;;;;10.30;54.40;;;;;;5081373;28;19912;-91
2022/03/19 01:43:05;;;;;;;;;;;10.30;54.30;;;;;;5080966;28;19920;-91
2022/03/19 01:45:30;;;;;;;;;;;10.30;54.20;;;;;;5082526;28;20304;-90
2022/03/19 01:47:56;;;;;;;;;;;10.30;54.20;;;;;;5099904;28;19916;-90
2022/03/19 01:50:23;;;;;;;;;;;10.30;54.00;;;;;;5079104;28;20329;-89
2022/03/19 01:52:56;;;;;;;;;;;10.30;53.90;;;;;;5096499;28;19966;-89
2022/03/19 01:55:25;;;;;;;;;;;10.30;53.70;;;;;;5096374;28;19916;-91
2022/03/19 01:57:51;;;;;;;;;;;10.30;53.80;;;;;;5081147;28;19920;-91
2022/03/19 02:00:18;;;;;;;;;;;10.30;53.80;;;;;;5100174;28;19908;-92
2022/03/19 02:02:44;;;;;;;;;;;10.30;53.70;;;;;;5083068;28;19912;-92
2022/03/19 02:05:12;;;;;;;;;;;10.30;53.60;;;;;;5077425;28;19920;-92
2022/03/19 02:07:38;;;;;;;;;;;10.30;53.50;;;;;;5077240;28;19912;-91
2022/03/19 02:10:04;;;;;;;;;;;10.20;53.30;;;;;;5081000;28;19968;-90
2022/03/19 02:12:30;;;;;;;;;;;10.10;53.20;;;;;;5098570;28;19920;-90
2022/03/19 02:14:57;;;;;;;;;;;10.10;53.10;;;;;;5080121;28;20271;-90
2022/03/19 02:17:24;;;;;;;;;;;10.00;52.80;;;;;;5079252;28;19923;-91
2022/03/19 02:19:50;;;;;;;;;;;9.80;52.60;;;;;;5098924;28;20347;-90
2022/03/19 02:22:23;;;;;;;;;;;9.80;52.40;;;;;;5102425;28;19925;-90
2022/03/19 02:27:33;;;;;;;;;;;9.50;52.40;;;;;;5098475;28;20259;-91
2022/03/19 02:29:59;;;;;;;;;;;9.40;52.10;;;;;;5079221;28;19913;-89
2022/03/19 02:32:25;;;;;;;;;;;9.30;52.10;;;;;;5081814;28;19912;-91
2022/03/19 02:34:52;;;;;;;;;;;9.20;52.60;;;;;;5098765;28;19912;-88
2022/03/19 02:37:17;;;;;;;;;;;9.10;52.60;;;;;;5082063;28;19991;-91
2022/03/19 02:39:43;;;;;;;;;;;9.00;52.30;;;;;;5077220;28;19997;-90
2022/03/19 02:42:08;;;;;;;;;;;8.90;52.00;;;;;;5097329;28;19951;-91
2022/03/19 02:44:35;;;;;;;;;;;8.70;52.00;;;;;;5080487;28;20524;-90
2022/03/19 02:47:02;;;;;;;;;;;8.60;52.20;;;;;;5096462;28;19930;-91
2022/03/19 02:49:27;;;;;;;;;;;8.50;52.90;;;;;;5076753;28;19934;-89
2022/03/19 02:51:54;;;;;;;;;;;8.50;53.00;;;;;;5101893;28;19939;-89
2022/03/19 02:54:23;;;;;;;;;;;8.30;52.80;;;;;;5081585;28;19923;-90
2022/03/19 02:56:51;;;;;;;;;;;8.30;53.00;;;;;;5099606;28;20046;-91
2022/03/19 02:59:23;;;;;;;;;;;8.20;53.50;;;;;;5083682;28;19926;-89
2022/03/19 03:01:53;;;;;;;;;;;8.20;54.00;;;;;;5078189;28;19922;-90
2022/03/19 03:04:18;;;;;;;;;;;8.20;54.30;;;;;;5081084;28;19965;-91
2022/03/19 03:06:45;;;;;;;;;;;8.20;54.90;;;;;;5079966;28;19991;-91
2022/03/19 03:09:11;;;;;;;;;;;8.20;55.10;;;;;;5079381;28;19916;-91
2022/03/19 03:11:37;;;;;;;;;;;8.30;55.50;;;;;;5099564;28;20359;-91
2022/03/19 03:14:08;;;;;;;;;;;8.30;55.90;;;;;;5081668;28;20270;-91
2022/03/19 03:16:35;;;;;;;;;;;8.40;56.20;;;;;;5075852;28;20347;-91
2022/03/19 03:19:01;;;;;;;;;;;8.60;56.40;;;;;;5078717;28;19946;-90
2022/03/19 03:21:27;;;;;;;;;;;8.70;56.30;;;;;;5098325;28;19908;-89
2022/03/19 03:23:53;;;;;;;;;;;8.80;56.30;;;;;;5081515;28;20538;-91
2022/03/19 03:26:19;;;;;;;;;;;8.80;56.00;;;;;;5080222;28;19908;-89
2022/03/19 03:28:44;;;;;;;;;;;8.90;55.60;;;;;;5078774;28;19927;-91
2022/03/19 03:31:10;;;;;;;;;;;9.00;55.50;;;;;;5098987;28;19916;-91
2022/03/19 03:33:35;;;;;;;;;;;9.00;55.30;;;;;;5081993;28;19977;-89
2022/03/19 03:36:01;;;;;;;;;;;9.00;55.30;;;;;;5079629;28;19912;-89
2022/03/19 03:38:27;;;;;;;;;;;9.00;55.30;;;;;;5079200;28;19934;-92
2022/03/19 03:40:53;;;;;;;;;;;9.00;55.40;;;;;;5077733;28;19909;-89
2022/03/19 03:43:19;;;;;;;;;;;9.00;55.40;;;;;;5096839;28;19958;-89
2022/03/19 03:45:44;;;;;;;;;;;9.10;55.40;;;;;;5082776;28;20654;-89
2022/03/19 03:48:10;;;;;;;;;;;9.00;55.30;;;;;;5082528;28;19923;-91
2022/03/19 03:50:39;;;;;;;;;;;9.10;55.40;;;;;;5079377;28;19911;-91
2022/03/19 03:53:04;;;;;;;;;;;9.10;55.20;;;;;;5086615;28;19938;-91
2022/03/19 03:55:36;;;;;;;;;;;9.10;55.30;;;;;;5098785;28;19908;-91
2022/03/19 03:58:08;;;;;;;;;;;9.10;55.30;;;;;;5100004;28;19931;-91
2022/03/19 04:00:34;;;;;;;;;;;9.20;55.60;;;;;;5079371;28;20263;-89
2022/03/19 04:03:00;;;;;;;;;;;9.20;55.50;;;;;;5082753;28;19916;-89
2022/03/19 04:05:26;;;;;;;;;;;9.30;55.40;;;;;;5106326;28;19961;-91
2022/03/19 04:07:51;;;;;;;;;;;9.30;55.20;;;;;;5084985;28;20290;-91
2022/03/19 04:10:17;;;;;;;;;;;9.30;55.10;;;;;;5089263;28;19909;-90
2022/03/19 04:12:43;;;;;;;;;;;9.30;55.00;;;;;;5099973;28;19924;-89
2022/03/19 04:15:09;;;;;;;;;;;9.30;54.90;;;;;;5081976;28;20008;-91
2022/03/19 04:17:35;;;;;;;;;;;9.30;54.70;;;;;;5080900;28;19955;-91
2022/03/19 04:20:01;;;;;;;;;;;9.30;54.90;;;;;;5083157;28;19908;-91
2022/03/19 04:22:37;;;;;;;;;;;9.30;54.90;;;;;;5103391;28;19994;-91
2022/03/19 04:25:03;;;;;;;;;;;9.20;54.90;;;;;;5087704;28;19923;-90
2022/03/19 04:27:28;;;;;;;;;;;9.20;54.90;;;;;;5083460;28;19915;-91
2022/03/19 04:29:54;;;;;;;;;;;9.10;54.90;;;;;;5082951;28;19908;-91
2022/03/19 04:32:19;;;;;;;;;;;9.10;54.90;;;;;;5082019;28;19961;-92
2022/03/19 04:34:45;;;;;;;;;;;9.10;55.00;;;;;;5102306;28;19981;-91
2022/03/19 04:37:10;;;;;;;;;;;9.10;55.10;;;;;;5082031;28;19966;-89
2022/03/19 04:39:36;;;;;;;;;;;9.10;55.30;;;;;;5082207;28;19915;-91
2022/03/19 04:42:01;;;;;;;;;;;9.10;55.40;;;;;;5100955;28;19972;-91
2022/03/19 04:44:28;;;;;;;;;;;9.00;55.50;;;;;;5103986;28;19998;-90
2022/03/19 04:46:53;;;;;;;;;;;9.00;55.60;;;;;;5081554;28;19938;-91
2022/03/19 04:49:19;;;;;;;;;;;9.00;55.70;;;;;;5079795;28;19999;-91
2022/03/19 04:51:44;;;;;;;;;;;9.00;55.80;;;;;;5081790;28;19908;-90
2022/03/19 04:54:10;;;;;;;;;;;8.90;56.00;;;;;;5082303;28;20313;-91
2022/03/19 04:56:36;;;;;;;;;;;9.00;56.10;;;;;;5102582;28;20286;-89
2022/03/19 04:59:03;;;;;;;;;;;9.00;56.10;;;;;;5080908;28;19966;-89
2022/03/19 05:01:29;;;;;;;;;;;8.90;56.30;;;;;;5081653;28;19912;-92
2022/03/19 05:03:55;;;;;;;;;;;9.00;56.40;;;;;;5100226;28;19916;-92
2022/03/19 05:06:21;;;;;;;;;;;9.00;56.60;;;;;;5081211;28;19908;-92
2022/03/19 05:08:47;;;;;;;;;;;8.90;56.30;;;;;;5103525;28;19922;-90
2022/03/19 05:11:12;;;;;;;;;;;8.90;56.30;;;;;;5100004;28;20359;-89
2022/03/19 05:13:45;;;;;;;;;;;8.90;56.10;;;;;;5082431;28;20023;-92
2022/03/19 05:16:11;;;;;;;;;;;8.90;56.00;;;;;;5105715;28;20096;-91
2022/03/19 05:18:36;;;;;;;;;;;8.90;56.00;;;;;;5104922;28;19969;-88
2022/03/19 05:21:02;;;;;;;;;;;8.80;56.30;;;;;;5118658;28;19911;-89
2022/03/19 05:23:28;;;;;;;;;;;8.90;56.20;;;;;;5093963;28;19983;-91
2022/03/19 05:25:53;;;;;;;;;;;8.90;55.90;;;;;;5104702;28;20596;-91
2022/03/19 05:28:19;;;;;;;;;;;8.80;55.20;;;;;;5080988;28;19919;-89
2022/03/19 05:30:45;;;;;;;;;;;8.80;55.30;;;;;;5101294;28;19972;-91
2022/03/19 05:33:11;;;;;;;;;;;8.70;55.40;;;;;;5084811;28;19912;-90
2022/03/19 05:35:37;;;;;;;;;;;8.80;55.30;;;;;;5099749;28;19963;-91
2022/03/19 05:38:04;;;;;;;;;;;8.70;55.40;;;;;;5085832;28;19920;-91
2022/03/19 05:40:30;;;;;;;;;;;8.70;55.20;;;;;;5080245;28;19919;-90
2022/03/19 05:42:56;;;;;;;;;;;8.70;55.00;;;;;;5082535;28;19916;-92
2022/03/19 05:45:21;;;;;;;;;;;8.70;55.60;;;;;;5085525;28;19912;-91
2022/03/19 05:47:47;;;;;;;;;;;8.80;56.40;;;;;;5084222;28;19923;-89
2022/03/19 05:50:13;;;;;;;;;;;9.00;57.10;;;;;;5085944;28;19912;-91
2022/03/19 05:52:38;;;;;;;;;;;9.20;57.70;;;;;;5089040;28;19919;-91
2022/03/19 05:55:04;;;;;;;;;;;9.40;58.10;;;;;;5088535;28;19996;-91
2022/03/19 05:57:33;;;;;;;;;;;9.70;58.40;;;;;;5077447;28;19973;-92
2022/03/19 06:00:03;;;;;;;;;;;9.90;58.60;;;;;;5076293;28;19912;-90
2022/03/19 06:02:28;;;;;;;;;;;10.20;58.90;;;;;;5083771;28;20393;-91
2022/03/19 06:04:54;;;;;;;;;;;10.60;59.10;;;;;;5100022;28;19983;-90
2022/03/19 06:07:20;;;;;;;;;;;10.90;58.70;;;;;;5100303;28;19912;-92
2022/03/19 06:09:45;;;;;;;;;;;11.20;58.20;;;;;;5118578;22;20374;-91
2022/03/19 06:12:11;;;;;;;;;;;11.60;58.30;;;;;;5065364;28;20110;-92
2022/03/19 06:14:37;;;;;;;;;;;11.90;57.60;;;;;;5066280;28;19958;-90
2022/03/19 06:17:02;;;;;;;;;;;12.30;56.90;;;;;;5058710;28;19913;-91
2022/03/19 06:19:28;;;;;;;;;;;12.60;55.60;;;;;;5064365;28;20009;-90
2022/03/19 06:21:53;;;;;;;;;;;12.90;54.60;;;;;;5061347;28;19919;-91
2022/03/19 06:24:22;;;;;;;;;;;13.20;53.10;;;;;;5060839;28;19913;-90
2022/03/19 06:26:48;;;;;;;;;;;13.50;52.20;;;;;;5062614;28;19919;-91
2022/03/19 06:29:14;;;;;;;;;;;13.80;51.10;;;;;;5058134;28;19999;-91
2022/03/19 06:31:39;;;;;;;;;;;14.20;50.60;;;;;;5062716;28;19913;-90
2022/03/19 06:34:05;;;;;;;;;;;14.50;49.80;;;;;;5056147;28;19908;-89
2022/03/19 06:39:14;;;;;;;;;;;15.10;46.80;;;;;;5079509;28;19973;-92
2022/03/19 06:41:40;;;;;;;;;;;15.40;46.00;;;;;;5074062;28;19999;-90
2022/03/19 06:44:06;;;;;;;;;;;15.70;45.70;;;;;;5066026;28;19904;-90
2022/03/19 06:46:32;;;;;;;;;;;16.00;43.90;;;;;;5068791;28;19905;-90
2022/03/19 06:48:57;;;;;;;;;;;16.30;43.20;;;;;;5060116;28;19916;-91
2022/03/19 06:51:23;;;;;;;;;;;16.50;42.00;;;;;;5045350;28;19917;-90
2022/03/19 06:53:53;;;;;;;;;;;16.80;41.30;;;;;;5057223;28;19916;-90
2022/03/19 06:58:49;;;;;;;;;;;17.30;40.00;;;;;;5076470;28;19924;-91
2022/03/19 07:01:15;;;;;;;;;;;17.70;39.30;;;;;;5064884;28;19916;-90
2022/03/19 07:03:44;;;;;;;;;;;18.00;38.80;;;;;;5066783;28;20007;-91
2022/03/19 07:06:10;;;;;;;;;;;18.30;37.90;;;;;;5063102;28;19909;-91
2022/03/19 07:08:36;;;;;;;;;;;18.50;36.70;;;;;;5058900;28;19935;-90
2022/03/19 07:11:01;;;;;;;;;;;18.70;36.40;;;;;;5063989;28;19916;-89
2022/03/19 07:13:27;;;;;;;;;;;19.10;35.80;;;;;;5083320;28;19926;-89
2022/03/19 07:15:53;;;;;;;;;;;19.30;36.00;;;;;;5058348;28;20162;-89
2022/03/19 07:18:19;;;;;;;;;;;19.70;35.50;;;;;;5060597;28;20070;-91
2022/03/19 07:20:44;;;;;;;;;;;19.90;34.20;;;;;;5061633;28;19908;-91
2022/03/19 07:23:10;;;;;;;;;;;20.10;32.80;;;;;;5058641;28;19960;-90
2022/03/19 07:25:36;;;;;;;;;;;20.20;32.60;;;;;;5080252;28;20209;-91
2022/03/19 07:28:05;;;;;;;;;;;20.30;32.40;;;;;;5065496;28;19920;-91
2022/03/19 07:30:30;;;;;;;;;;;20.40;31.70;;;;;;5064585;28;19954;-90
2022/03/19 07:32:56;;;;;;;;;;;20.50;31.50;;;;;;5085945;28;19920;-89
2022/03/19 07:35:23;;;;;;;;;;;20.50;31.00;;;;;;5088519;28;19920;-92
2022/03/19 07:37:50;;;;;;;;;;;20.60;30.40;;;;;;5091810;28;19928;-89
2022/03/19 07:41:45;;;;;;;;;;;20.70;30.30;;;;;;5068755;28;19917;-89
2022/03/19 07:43:09;;;;;;;;;;;20.70;29.90;;;;;;5083898;28;19917;-91
2022/03/19 07:45:35;;;;;;;;;;;20.70;29.60;;;;;;5054631;28;20079;-90
2022/03/19 07:48:01;;;;;;;;;;;20.70;29.90;;;;;;5089552;28;19920;-89
2022/03/19 07:50:26;;;;;;;;;;;20.80;29.70;;;;;;5060438;28;19955;-91
2022/03/19 07:52:52;;;;;;;;;;;21.00;29.60;;;;;;5043367;28;19916;-91
2022/03/19 07:55:18;;;;;;;;;;;21.20;29.30;;;;;;5049402;28;19908;-89
2022/03/19 07:57:43;;;;;;;;;;;21.30;29.40;;;;;;5043438;28;19955;-89
2022/03/19 08:00:09;;;;;;;;;;;21.50;29.30;;;;;;5045383;28;20642;-91
2022/03/19 08:02:40;;;;;;;;;;;21.70;28.90;;;;;;5062782;28;19916;-91
2022/03/19 08:05:07;;;;;;;;;;;21.90;28.60;;;;;;5048471;28;19909;-89
2022/03/19 08:07:33;;;;;;;;;;;22.00;28.30;;;;;;5066085;28;20012;-89
2022/03/19 08:09:58;;;;;;;;;;;22.10;27.40;;;;;;5046462;28;19909;-91
2022/03/19 08:12:25;;;;;;;;;;;22.00;27.20;;;;;;5046065;28;19917;-91
2022/03/19 08:14:51;;;;;;;;;;;22.00;27.50;;;;;;5059328;28;19908;-89
2022/03/19 08:17:17;;;;;;;;;;;22.20;27.10;;;;;;5087315;28;20130;-89
2022/03/19 08:19:43;;;;;;;;;;;22.30;27.30;;;;;;5083465;28;19954;-89
2022/03/19 08:22:09;;;;;;;;;;;22.30;26.80;;;;;;5084461;28;19944;-89
2022/03/19 08:24:35;;;;;;;;;;;22.20;26.90;;;;;;5063218;28;19944;-91
2022/03/19 08:27:01;;;;;;;;;;;22.40;27.20;;;;;;5081488;28;19971;-89
2022/03/19 08:29:30;;;;;;;;;;;22.50;27.20;;;;;;5057629;28;19920;-89
2022/03/19 08:31:56;;;;;;;;;;;22.80;26.80;;;;;;5068348;28;19921;-92
2022/03/19 08:34:22;;;;;;;;;;;22.90;26.30;;;;;;5078764;28;20011;-91
2022/03/19 08:36:48;;;;;;;;;;;23.00;26.10;;;;;;5044611;28;19921;-89
2022/03/19 08:41:58;;;;;;;;;;;22.80;25.20;;;;;;5064188;28;19927;-91
2022/03/19 08:44:24;;;;;;;;;;;22.70;25.20;;;;;;5086040;28;19912;-90
2022/03/19 08:46:50;;;;;;;;;;;22.80;25.00;;;;;;5062876;28;19927;-89
2022/03/19 08:49:15;;;;;;;;;;;22.60;24.60;;;;;;5066998;28;19909;-91
2022/03/19 08:51:40;;;;;;;;;;;22.50;24.60;;;;;;5077922;28;19955;-90
2022/03/19 08:54:07;;;;;;;;;;;22.30;24.40;;;;;;5079410;28;19952;-91
2022/03/19 08:56:33;;;;;;;;;;;22.10;24.40;;;;;;5056686;28;19920;-89
2022/03/19 08:58:59;;;;;;;;;;;22.00;24.90;;;;;;5076717;28;19942;-89
2022/03/19 09:01:24;;;;;;;;;;;22.10;25.20;;;;;;5078635;28;19962;-91
2022/03/19 09:03:50;;;;;;;;;;;22.30;25.30;;;;;;5062706;28;19916;-89
2022/03/19 09:06:17;;;;;;;;;;;22.50;25.20;;;;;;5077184;28;20015;-91
2022/03/19 09:08:42;;;;;;;;;;;22.70;24.90;;;;;;5057455;28;19931;-89
2022/03/19 09:11:08;;;;;;;;;;;22.60;24.90;;;;;;5061589;28;19966;-90
2022/03/19 09:13:33;;;;;;;;;;;22.70;24.90;;;;;;5064222;28;19920;-89
2022/03/19 09:16:00;;;;;;;;;;;22.80;24.80;;;;;;5052194;28;19913;-90
2022/03/19 09:18:29;;;;;;;;;;;22.80;24.40;;;;;;5047835;28;20023;-87
2022/03/19 09:20:55;;;;;;;;;;;22.90;24.30;;;;;;5058251;28;19920;-90
2022/03/19 09:23:21;;;;;;;;;;;22.90;24.40;;;;;;5078697;28;19920;-87
2022/03/19 09:25:47;;;;;;;;;;;23.00;24.50;;;;;;5075905;28;19958;-89
2022/03/19 09:28:12;;;;;;;;;;;22.90;24.20;;;;;;5080310;28;20019;-91
2022/03/19 09:30:38;;;;;;;;;;;22.80;23.90;;;;;;5081185;28;19944;-91
2022/03/19 09:33:03;;;;;;;;;;;22.70;23.90;;;;;;5077821;28;19978;-88
2022/03/19 09:35:37;;;;;;;;;;;22.60;23.50;;;;;;5079620;28;19916;-87
2022/03/19 09:38:04;;;;;;;;;;;22.30;23.90;;;;;;5057576;28;19928;-91
2022/03/19 09:40:29;;;;;;;;;;;22.30;24.10;;;;;;5080760;28;20029;-91
2022/03/19 09:42:59;;;;;;;;;;;22.30;24.50;;;;;;5058220;28;19967;-91
2022/03/19 09:45:26;;;;;;;;;;;22.50;23.90;;;;;;5069428;28;19936;-89
2022/03/19 09:47:53;;;;;;;;;;;22.50;24.00;;;;;;5061177;28;19922;-91
2022/03/19 09:50:20;;;;;;;;;;;22.70;23.90;;;;;;5050922;28;20362;-91
2022/03/19 09:52:46;;;;;;;;;;;22.70;23.50;;;;;;5054005;28;19932;-91
2022/03/19 09:55:16;;;;;;;;;;;22.70;23.40;;;;;;5053420;28;19976;-91
2022/03/19 09:57:42;;;;;;;;;;;22.50;23.30;;;;;;5037437;28;19929;-91
2022/03/19 10:00:08;;;;;;;;;;;22.70;23.30;;;;;;5046919;28;19927;-88
2022/03/19 10:02:33;;;;;;;;;;;22.60;23.00;;;;;;5036148;28;20301;-89
2022/03/19 10:08:35;;;;;;;;;;;22.70;22.90;;;;;;5059810;28;19921;-90
2022/03/19 10:10:33;;;;;;;;;;;22.50;22.60;;;;;;5057002;28;19963;-90
2022/03/19 10:12:59;;;;;;;;;;;22.40;22.60;;;;;;5039207;28;19924;-88
2022/03/19 10:15:25;;;;;;;;;;;22.30;22.40;;;;;;5079740;28;19912;-88
2022/03/19 10:17:58;;;;;;;;;;;22.30;22.20;;;;;;5063200;28;19930;-90
2022/03/19 10:20:24;;;;;;;;;;;22.30;22.50;;;;;;5076872;28;20688;-90
2022/03/19 10:22:50;;;;;;;;;;;22.40;22.40;;;;;;5084076;28;19955;-89
2022/03/19 10:25:18;;;;;;;;;;;22.30;22.00;;;;;;5096174;28;19919;-90
2022/03/19 10:27:44;;;;;;;;;;;22.20;22.40;;;;;;5086317;28;19995;-91
2022/03/19 10:30:19;;;;;;;;;;;22.30;22.20;;;;;;5086566;28;19916;-90
2022/03/19 10:32:54;;;;;;;;;;;22.40;22.50;;;;;;5084702;28;19920;-91
2022/03/19 10:35:27;;;;;;;;;;;22.40;22.30;;;;;;5085639;28;20047;-89
2022/03/19 10:37:54;;;;;;;;;;;22.70;22.60;;;;;;5101488;28;20027;-91
2022/03/19 10:40:20;;;;;;;;;;;22.80;22.10;;;;;;5086442;28;19916;-89
2022/03/19 10:42:45;;;;;;;;;;;22.80;21.60;;;;;;5085593;28;19977;-91
2022/03/19 10:45:12;;;;;;;;;;;22.80;21.60;;;;;;5085469;28;19920;-91
2022/03/19 10:47:41;;;;;;;;;;;22.70;21.40;;;;;;5087326;28;19999;-91
2022/03/19 10:50:06;;;;;;;;;;;22.80;21.30;;;;;;5088634;28;19912;-91
2022/03/19 10:52:33;;;;;;;;;;;22.70;21.50;;;;;;5090232;28;19920;-89
2022/03/19 10:55:03;;;;;;;;;;;23.00;21.60;;;;;;5087633;28;19928;-91
2022/03/19 10:57:29;;;;;;;;;;;23.20;21.40;;;;;;5086492;28;19932;-91
2022/03/19 10:59:54;;;;;;;;;;;23.20;21.70;;;;;;5085250;28;19924;-89
2022/03/19 11:02:20;;;;;;;;;;;23.40;21.90;;;;;;5060015;28;19932;-91
2022/03/19 11:04:46;;;;;;;;;;;23.70;21.30;;;;;;5056776;28;19924;-91
2022/03/19 11:07:12;;;;;;;;;;;23.80;20.90;;;;;;5039388;28;20386;-89
2022/03/19 11:09:38;;;;;;;;;;;24.00;20.30;;;;;;5040202;28;19966;-91
2022/03/19 11:12:07;;;;;;;;;;;23.90;20.20;;;;;;5063273;28;19929;-91
2022/03/19 11:14:35;;;;;;;;;;;23.90;20.10;;;;;;5067166;28;19920;-91
2022/03/19 11:17:23;;;;;;;;;;;23.70;19.60;;;;;;5079475;28;19928;-90
2022/03/19 11:19:49;;;;;;;;;;;23.50;19.20;;;;;;5105721;28;19920;-91
2022/03/19 11:22:15;;;;;;;;;;;23.20;20.10;;;;;;5096269;28;19920;-89
2022/03/19 11:27:10;;;;;;;;;;;23.20;20.60;;;;;;5093700;22;19925;-89
2022/03/19 11:29:36;;;;;;;;;;;23.30;21.00;;;;;;5077043;28;20550;-91
2022/03/19 11:32:02;;;;;;;;;;;23.20;20.40;;;;;;5058596;28;20558;-89
2022/03/19 11:34:41;;;;;;;;;;;23.10;20.40;;;;;;5073431;28;20011;-89
2022/03/19 11:37:07;;;;;;;;;;;22.90;20.30;;;;;;5078119;28;19920;-91
2022/03/19 11:39:32;;;;;;;;;;;22.90;20.50;;;;;;5056822;28;19927;-88
2022/03/19 11:41:59;;;;;;;;;;;22.70;20.20;;;;;;5057989;28;19920;-90
2022/03/19 11:44:25;;;;;;;;;;;22.60;19.90;;;;;;5076098;28;19917;-90
2022/03/19 11:47:01;;;;;;;;;;;22.40;19.40;;;;;;5079023;28;19927;-89
2022/03/19 11:49:47;;;;;;;;;;;21.90;19.50;;;;;;5085406;28;19904;-90
2022/03/19 11:52:18;;;;;;;;;;;21.80;19.90;;;;;;5065116;28;20402;-91
2022/03/19 11:55:05;;;;;;;;;;;21.40;20.20;;;;;;5071375;28;19924;-90
2022/03/19 11:57:55;;;;;;;;;;;21.30;20.80;;;;;;5074466;28;19928;-89
2022/03/19 12:00:24;;;;;;;;;;;21.00;20.70;;;;;;5055444;28;20478;-89
2022/03/19 12:03:08;;;;;;;;;;;20.50;20.90;;;;;;5077874;28;19931;-91
2022/03/19 12:05:36;;;;;;;;;;;20.60;21.60;;;;;;5082826;28;19924;-89
2022/03/19 12:08:06;;;;;;;;;;;20.60;21.50;;;;;;5054024;28;19928;-91
2022/03/19 12:10:39;;;;;;;;;;;20.60;21.70;;;;;;5071144;28;19921;-89
2022/03/19 12:13:20;;;;;;;;;;;20.50;21.70;;;;;;5058108;28;20305;-90
2022/03/19 12:15:46;;;;;;;;;;;20.40;21.80;;;;;;5056545;28;19920;-91
2022/03/19 12:18:21;;;;;;;;;;;20.50;22.00;;;;;;5063380;28;19950;-91
2022/03/19 12:20:49;;;;;;;;;;;20.20;21.90;;;;;;5055672;28;19951;-89
2022/03/19 12:23:21;;;;;;;;;;;20.40;22.20;;;;;;5078830;22;19935;-89
2022/03/19 12:25:54;;;;;;;;;;;20.50;21.80;;;;;;5054077;28;19924;-89
2022/03/19 12:28:20;;;;;;;;;;;20.20;22.10;;;;;;5080670;28;19920;-91
2022/03/19 12:30:45;;;;;;;;;;;20.20;22.10;;;;;;5060838;28;19916;-89
2022/03/19 12:33:11;;;;;;;;;;;20.30;22.50;;;;;;5054977;28;19920;-89
2022/03/19 12:35:40;;;;;;;;;;;20.40;22.50;;;;;;5076154;28;19924;-91
2022/03/19 12:38:06;;;;;;;;;;;20.30;22.50;;;;;;5057804;28;19975;-91
2022/03/19 12:43:17;;;;;;;;;;;20.80;22.50;;;;;;5076104;28;19931;-89
2022/03/19 12:45:45;;;;;;;;;;;20.90;22.50;;;;;;5077664;28;19920;-89
2022/03/19 12:48:15;;;;;;;;;;;21.00;22.40;;;;;;5056033;28;19935;-90
2022/03/19 12:50:54;;;;;;;;;;;21.10;22.40;;;;;;5076745;28;19964;-91
2022/03/19 12:53:33;;;;;;;;;;;21.10;22.30;;;;;;5061484;28;19970;-89
2022/03/19 12:56:17;;;;;;;;;;;21.10;22.30;;;;;;5063124;28;19921;-91
2022/03/19 12:58:44;;;;;;;;;;;21.30;22.60;;;;;;5056542;28;19925;-90
2022/03/19 13:01:10;;;;;;;;;;;21.40;22.50;;;;;;5055567;28;19920;-89
2022/03/19 13:03:36;;;;;;;;;;;21.50;22.40;;;;;;5059523;28;19938;-91
2022/03/19 13:06:01;;;;;;;;;;;21.50;22.50;;;;;;5060523;28;19908;-90
2022/03/19 13:08:27;;;;;;;;;;;21.50;22.60;;;;;;5078514;28;19947;-91
2022/03/19 13:10:53;;;;;;;;;;;21.60;22.60;;;;;;5056259;28;19962;-91
2022/03/19 13:13:19;;;;;;;;;;;21.50;22.60;;;;;;5057358;28;19920;-89
2022/03/19 13:15:52;;;;;;;;;;;21.70;22.70;;;;;;5051857;28;19924;-91
2022/03/19 13:18:28;;;;;;;;;;;21.80;22.70;;;;;;5055545;28;19928;-89
2022/03/19 13:21:07;;;;;;;;;;;21.90;22.20;;;;;;5061062;28;19924;-90
2022/03/19 13:23:33;;;;;;;;;;;21.70;22.50;;;;;;5061694;28;19920;-90
2022/03/19 13:25:59;;;;;;;;;;;21.20;23.00;;;;;;5060776;28;19925;-91
2022/03/19 13:28:25;;;;;;;;;;;20.80;23.30;;;;;;5078492;28;19964;-91
2022/03/19 13:30:50;;;;;;;;;;;20.30;23.40;;;;;;5065564;28;19932;-89
2022/03/19 13:33:16;;;;;;;;;;;19.90;23.60;;;;;;5077137;28;19900;-91
2022/03/19 13:35:47;;;;;;;;;;;19.30;24.40;;;;;;5058929;28;19931;-91
2022/03/19 13:38:17;;;;;;;;;;;19.10;24.80;;;;;;5077049;28;19932;-89
2022/03/19 13:40:43;;;;;;;;;;;18.70;25.30;;;;;;5075888;28;19962;-88
2022/03/19 13:43:08;;;;;;;;;;;18.30;25.70;;;;;;5059029;28;19920;-91
2022/03/19 13:45:34;;;;;;;;;;;17.90;26.20;;;;;;5075999;28;19924;-91
2022/03/19 13:48:07;;;;;;;;;;;17.70;26.60;;;;;;5075791;28;19924;-91
2022/03/19 13:50:36;;;;;;;;;;;17.70;26.70;;;;;;5058099;28;20372;-91
2022/03/19 13:53:02;;;;;;;;;;;17.40;26.80;;;;;;5060424;28;19916;-90
2022/03/19 13:55:28;;;;;;;;;;;17.30;26.90;;;;;;5079380;28;19931;-89
2022/03/19 13:58:01;;;;;;;;;;;17.20;26.90;;;;;;5060240;28;19989;-89
2022/03/19 14:00:27;;;;;;;;;;;17.20;27.00;;;;;;5057583;28;20014;-91
2022/03/19 14:02:56;;;;;;;;;;;17.10;27.40;;;;;;5058321;28;19920;-91
2022/03/19 14:05:22;;;;;;;;;;;17.10;27.50;;;;;;5076574;28;19962;-89
2022/03/19 14:07:48;;;;;;;;;;;17.30;27.70;;;;;;5056757;28;19956;-91
2022/03/19 14:10:14;;;;;;;;;;;17.40;27.60;;;;;;5058652;28;19927;-89
2022/03/19 14:12:40;;;;;;;;;;;17.40;27.00;;;;;;5076100;28;19924;-90
2022/03/19 14:15:06;;;;;;;;;;;17.50;27.10;;;;;;5059687;28;19928;-91
2022/03/19 14:17:42;;;;;;;;;;;17.30;27.00;;;;;;5057089;28;19925;-89
2022/03/19 14:20:08;;;;;;;;;;;17.20;27.30;;;;;;5075967;28;19932;-91
2022/03/19 14:22:33;;;;;;;;;;;17.20;27.40;;;;;;5063430;28;19925;-91
2022/03/19 14:24:59;;;;;;;;;;;17.10;27.80;;;;;;5058150;28;19916;-89
2022/03/19 14:27:24;;;;;;;;;;;17.10;28.00;;;;;;5078718;28;20361;-89
2022/03/19 14:29:50;;;;;;;;;;;16.90;28.40;;;;;;5076952;28;20461;-89
2022/03/19 14:32:15;;;;;;;;;;;16.80;28.60;;;;;;5077266;28;20375;-91
2022/03/19 14:34:41;;;;;;;;;;;16.80;28.90;;;;;;5076493;28;19920;-89
2022/03/19 14:37:06;;;;;;;;;;;16.80;29.00;;;;;;5077767;28;20601;-89
2022/03/19 14:39:32;;;;;;;;;;;17.10;28.80;;;;;;5056691;28;19920;-89